Time;durP1;ratioP1;P1;durP2;ratioP2;P2;SDS_P1;SDS_P2;PMS_P1;PMS_P2;Temp;Humidity;BMP_temperature;BMP_pressure;BME280_temperature;BME280_humidity;BME280_pressure;Samples;Min_cycle;Max_cycle;Signal;HPM_P1;HPM_P2
2022/10/23 00:02:25;;;;;;;0.22;0.22;;;21.90;71.30;;;;;;4954313;28;20070;-12
2022/10/23 00:04:51;;;;;;;0.30;0.30;;;22.00;70.30;;;;;;4958611;28;20047;-11
2022/10/23 00:07:17;;;;;;;0.20;0.20;;;22.00;70.30;;;;;;4957868;28;20510;-11
2022/10/23 00:09:42;;;;;;;0.20;0.20;;;22.00;70.20;;;;;;4959144;28;20039;-12
2022/10/23 00:12:08;;;;;;;1.23;0.40;;;21.90;70.40;;;;;;4957486;28;20201;-11
2022/10/23 00:14:33;;;;;;;0.20;0.20;;;21.90;70.40;;;;;;4956601;28;20078;-12
2022/10/23 00:16:59;;;;;;;0.43;0.25;;;21.90;70.40;;;;;;4957773;28;20422;-11
2022/10/23 00:19:25;;;;;;;0.30;0.30;;;21.90;70.50;;;;;;4959664;28;20047;-11
2022/10/23 00:21:50;;;;;;;0.40;0.35;;;21.90;70.20;;;;;;4971810;28;20066;-11
2022/10/23 00:24:16;;;;;;;0.20;0.20;;;21.90;71.10;;;;;;4959680;28;20043;-12
2022/10/23 00:26:41;;;;;;;0.17;0.17;;;21.90;70.30;;;;;;4957029;28;20124;-11
2022/10/23 00:29:07;;;;;;;0.13;0.13;;;21.90;70.30;;;;;;4953648;28;20523;-11
2022/10/23 00:31:33;;;;;;;0.15;0.15;;;21.90;70.30;;;;;;4954981;28;20039;-11
2022/10/23 00:33:58;;;;;;;0.20;0.20;;;21.90;70.40;;;;;;4955357;28;20537;-11
2022/10/23 00:36:24;;;;;;;0.20;0.20;;;21.80;70.40;;;;;;4959623;28;20137;-11
2022/10/23 00:38:50;;;;;;;0.50;0.30;;;21.80;70.20;;;;;;4957446;28;20061;-11
2022/10/23 00:41:18;;;;;;;0.50;0.30;;;21.80;70.40;;;;;;4955109;28;20502;-11
2022/10/23 00:44:16;;;;;;;0.20;0.20;;;21.90;70.30;;;;;;4957956;28;20054;-12
2022/10/23 00:46:43;;;;;;;0.20;0.20;;;21.90;70.30;;;;;;4950918;28;20043;-11
2022/10/23 00:49:09;;;;;;;0.50;0.47;;;21.90;70.20;;;;;;4957492;28;20070;-11
2022/10/23 00:51:55;;;;;;;0.30;0.20;;;21.90;70.20;;;;;;4937046;28;20130;-11
2022/10/23 00:54:24;;;;;;;0.10;0.10;;;21.80;70.10;;;;;;4935783;28;20042;-11
2022/10/23 00:56:49;;;;;;;0.40;0.30;;;21.80;70.10;;;;;;4957182;28;20050;-11
2022/10/23 00:59:15;;;;;;;0.32;0.32;;;21.80;70.10;;;;;;4937693;28;20042;-11
2022/10/23 01:01:40;;;;;;;0.35;0.30;;;21.90;70.00;;;;;;4954888;28;20129;-11
2022/10/23 01:04:06;;;;;;;0.20;0.20;;;21.80;70.10;;;;;;4958598;28;20072;-15
2022/10/23 01:06:36;;;;;;;0.22;0.22;;;21.80;70.10;;;;;;4942436;28;20451;-12
2022/10/23 01:09:32;;;;;;;0.30;0.30;;;21.80;70.10;;;;;;4958506;28;20055;-11
2022/10/23 01:12:09;;;;;;;0.15;0.15;;;21.80;70.10;;;;;;4950501;28;20050;-11
2022/10/23 01:15:13;;;;;;;0.38;0.20;;;21.80;70.10;;;;;;4937064;28;20051;-11
2022/10/23 01:17:42;;;;;;;0.63;0.35;;;21.80;70.10;;;;;;4939003;28;20044;-11
2022/10/23 01:20:19;;;;;;;0.20;0.20;;;21.80;70.20;;;;;;4942674;28;20074;-11
2022/10/23 01:23:05;;;;;;;0.13;0.13;;;21.80;70.00;;;;;;4940588;28;20043;-11
2022/10/23 01:25:43;;;;;;;0.20;0.20;;;21.80;70.00;;;;;;4949034;28;20054;-11
2022/10/23 01:28:10;;;;;;;0.28;0.28;;;21.80;70.00;;;;;;4954091;28;20054;-11
2022/10/23 01:30:39;;;;;;;0.13;0.13;;;21.80;70.10;;;;;;4954041;28;20401;-11
2022/10/23 01:33:05;;;;;;;0.10;0.10;;;21.80;70.00;;;;;;4962427;28;20573;-12
2022/10/23 01:35:35;;;;;;;0.15;0.15;;;21.80;70.10;;;;;;4952865;28;20261;-11
2022/10/23 01:38:07;;;;;;;0.30;0.30;;;21.80;70.20;;;;;;4954073;28;20035;-11
2022/10/23 01:40:47;;;;;;;0.30;0.20;;;21.80;70.10;;;;;;4933720;28;20036;-11
2022/10/23 01:43:18;;;;;;;0.30;0.30;;;21.80;70.10;;;;;;4946231;28;20087;-14
2022/10/23 01:45:47;;;;;;;0.20;0.20;;;21.80;70.00;;;;;;4950196;28;20557;-11
2022/10/23 01:48:14;;;;;;;0.20;0.20;;;21.80;70.10;;;;;;4951656;28;20062;-12
2022/10/23 01:50:40;;;;;;;0.10;0.10;;;21.80;70.00;;;;;;4968954;28;20042;-11
2022/10/23 01:53:06;;;;;;;0.20;0.20;;;21.80;70.10;;;;;;4954303;28;20043;-11
2022/10/23 01:55:32;;;;;;;0.10;0.10;;;21.70;70.00;;;;;;4955404;28;20531;-12
2022/10/23 01:57:57;;;;;;;0.20;0.10;;;21.80;70.20;;;;;;4970696;28;20130;-11
2022/10/23 02:00:23;;;;;;;0.20;0.20;;;21.70;70.20;;;;;;4984943;28;20035;-11
2022/10/23 02:02:48;;;;;;;0.20;0.20;;;21.70;70.10;;;;;;4956898;28;20054;-11
2022/10/23 02:05:20;;;;;;;0.20;0.20;;;21.70;70.30;;;;;;4963350;28;20030;-11
2022/10/23 02:07:45;;;;;;;0.10;0.10;;;21.70;70.20;;;;;;4970106;28;20037;-12
2022/10/23 02:10:11;;;;;;;0.20;0.20;;;21.70;70.20;;;;;;4959428;28;20620;-12
2022/10/23 02:12:45;;;;;;;0.30;0.20;;;21.70;70.30;;;;;;4961357;28;20042;-12
2022/10/23 02:15:20;;;;;;;0.13;0.13;;;21.70;70.20;;;;;;4963547;28;20049;-12
2022/10/23 02:17:49;;;;;;;0.20;0.17;;;21.70;70.40;;;;;;4957902;28;20063;-11
2022/10/23 02:20:32;;;;;;;0.25;0.22;;;21.70;70.30;;;;;;4973266;28;20050;-12
2022/10/23 02:23:21;;;;;;;0.17;0.13;;;21.70;70.30;;;;;;4957702;28;20047;-12
2022/10/23 02:25:57;;;;;;;0.20;0.20;;;21.70;70.10;;;;;;4957268;28;20175;-11
2022/10/23 02:28:25;;;;;;;0.25;0.10;;;21.70;70.10;;;;;;4955339;28;20047;-11
2022/10/23 02:30:50;;;;;;;0.30;0.30;;;21.70;70.20;;;;;;4989429;28;20085;-14
2022/10/23 02:33:16;;;;;;;0.30;0.30;;;21.60;70.30;;;;;;4975454;28;20450;-12
2022/10/23 02:35:42;;;;;;;0.88;0.20;;;21.70;70.30;;;;;;4940546;28;20539;-12
2022/10/23 02:38:27;;;;;;;0.52;0.15;;;21.70;70.40;;;;;;4959014;28;20039;-11
2022/10/23 02:40:53;;;;;;;0.13;0.13;;;21.70;70.30;;;;;;4955516;28;20146;-11
2022/10/23 02:43:23;;;;;;;0.30;0.20;;;21.70;71.00;;;;;;4957679;28;20201;-22
2022/10/23 02:45:52;;;;;;;0.55;0.20;;;21.70;70.30;;;;;;4975346;28;20054;-11
2022/10/23 02:48:22;;;;;;;0.22;0.22;;;21.60;70.40;;;;;;4975882;28;20138;-11
2022/10/23 02:51:04;;;;;;;0.10;0.10;;;21.60;70.50;;;;;;4954782;28;20498;-12
2022/10/23 02:53:49;;;;;;;0.20;0.20;;;21.70;70.40;;;;;;4972956;28;20050;-12
2022/10/23 02:56:20;;;;;;;0.05;0.05;;;21.70;70.20;;;;;;4971497;28;20061;-11
2022/10/23 02:59:09;;;;;;;0.13;0.13;;;21.60;70.20;;;;;;4955843;28;20098;-12
2022/10/23 03:01:39;;;;;;;0.10;0.10;;;21.60;70.50;;;;;;4957164;28;20042;-12
2022/10/23 03:04:04;;;;;;;0.20;0.20;;;21.60;70.30;;;;;;4951854;28;20125;-11
2022/10/23 03:06:31;;;;;;;0.15;0.15;;;21.60;70.50;;;;;;4957843;28;20070;-11
2022/10/23 03:09:04;;;;;;;0.15;0.15;;;21.70;70.30;;;;;;4975544;28;20045;-12
2022/10/23 03:11:30;;;;;;;0.10;0.10;;;21.60;70.40;;;;;;4959835;28;20066;-11
2022/10/23 03:13:55;;;;;;;0.10;0.10;;;21.60;71.00;;;;;;4959425;28;20510;-12
2022/10/23 03:16:21;;;;;;;0.10;0.10;;;21.60;70.30;;;;;;4955547;28;20071;-11
2022/10/23 03:18:46;;;;;;;0.22;0.20;;;21.60;70.40;;;;;;4958524;28;20031;-21
2022/10/23 03:21:12;;;;;;;0.17;0.17;;;21.60;70.40;;;;;;4956763;28;20039;-11
2022/10/23 03:23:37;;;;;;;0.20;0.20;;;21.60;70.30;;;;;;4961177;28;20047;-12
2022/10/23 03:26:03;;;;;;;0.20;0.20;;;21.60;70.30;;;;;;4961502;28;20053;-11
2022/10/23 03:28:29;;;;;;;0.20;0.20;;;21.60;70.40;;;;;;4959358;28;20561;-14
2022/10/23 03:30:55;;;;;;;0.20;0.20;;;21.60;71.30;;;;;;4958161;28;20046;-12
2022/10/23 03:33:20;;;;;;;0.30;0.30;;;21.60;70.60;;;;;;4959604;28;20042;-11
2022/10/23 03:35:47;;;;;;;0.10;0.10;;;21.60;70.70;;;;;;4956953;28;20078;-11
2022/10/23 03:38:13;;;;;;;0.45;0.38;;;21.50;70.60;;;;;;4957433;28;20058;-11
2022/10/23 03:40:38;;;;;;;0.25;0.25;;;21.60;70.50;;;;;;4960369;28;20034;-12
2022/10/23 03:43:04;;;;;;;0.20;0.20;;;21.60;70.80;;;;;;4945907;28;20041;-11
2022/10/23 03:45:31;;;;;;;0.25;0.20;;;21.60;71.30;;;;;;4951476;28;20039;-11
2022/10/23 03:47:57;;;;;;;0.10;0.10;;;21.60;70.50;;;;;;4954933;28;20039;-12
2022/10/23 03:50:22;;;;;;;0.13;0.10;;;21.60;70.70;;;;;;4952605;28;20110;-11
2022/10/23 03:52:48;;;;;;;0.20;0.20;;;21.60;70.40;;;;;;4956183;28;20402;-12
2022/10/23 03:55:14;;;;;;;0.10;0.10;;;21.50;70.60;;;;;;4954138;28;20516;-12
2022/10/23 03:57:39;;;;;;;0.10;0.10;;;21.50;70.90;;;;;;4955376;28;20782;-11
2022/10/23 04:00:05;;;;;;;0.13;0.13;;;21.50;70.90;;;;;;4960300;28;20050;-12
2022/10/23 04:02:31;;;;;;;0.30;0.30;;;21.50;70.70;;;;;;4954491;28;20118;-11
2022/10/23 04:04:56;;;;;;;0.30;0.30;;;21.50;70.80;;;;;;4952642;28;20123;-11
2022/10/23 04:07:22;;;;;;;0.20;0.20;;;21.50;70.60;;;;;;4958472;28;20055;-11
2022/10/23 04:09:47;;;;;;;0.40;0.20;;;21.50;70.90;;;;;;4956707;28;20142;-11
2022/10/23 04:12:13;;;;;;;0.30;0.30;;;21.50;70.60;;;;;;4956276;28;20051;-20
2022/10/23 04:14:39;;;;;;;0.20;0.20;;;21.60;70.70;;;;;;4951713;28;20039;-12
2022/10/23 04:17:04;;;;;;;0.10;0.10;;;21.50;70.60;;;;;;4956412;28;20073;-11
2022/10/23 04:19:30;;;;;;;0.35;0.30;;;21.50;70.70;;;;;;4954846;28;20048;-12
2022/10/23 04:21:56;;;;;;;0.10;0.10;;;21.50;70.60;;;;;;4945677;28;20058;-12
2022/10/23 04:24:25;;;;;;;0.10;0.10;;;21.50;70.80;;;;;;4952865;28;20411;-11
2022/10/23 04:26:51;;;;;;;0.10;0.10;;;21.60;70.90;;;;;;4949554;28;20529;-11
2022/10/23 04:29:17;;;;;;;0.30;0.17;;;21.50;70.60;;;;;;4951206;28;20145;-16
2022/10/23 04:31:42;;;;;;;0.20;0.20;;;21.60;70.70;;;;;;4953420;28;20046;-11
2022/10/23 04:34:08;;;;;;;0.20;0.10;;;21.50;70.70;;;;;;4954496;28;20034;-12
2022/10/23 04:36:33;;;;;;;1.10;0.20;;;21.50;70.70;;;;;;4951396;28;20051;-11
2022/10/23 04:38:59;;;;;;;0.17;0.10;;;21.50;70.60;;;;;;4950811;28;20038;-12
2022/10/23 04:41:24;;;;;;;0.20;0.20;;;21.60;70.70;;;;;;4955627;28;20054;-12
2022/10/23 04:43:50;;;;;;;0.22;0.22;;;21.60;70.60;;;;;;4953428;28;20042;-11
2022/10/23 04:46:16;;;;;;;1.27;0.20;;;21.60;70.50;;;;;;4956117;28;20128;-11
2022/10/23 04:48:41;;;;;;;0.20;0.20;;;21.60;70.50;;;;;;4950115;28;20046;-12
2022/10/23 04:51:07;;;;;;;0.30;0.30;;;21.60;70.70;;;;;;4952324;28;20046;-12
2022/10/23 04:53:32;;;;;;;0.32;0.30;;;21.50;70.70;;;;;;4960924;28;20085;-11
2022/10/23 04:55:58;;;;;;;0.25;0.20;;;21.60;70.60;;;;;;4955885;28;20469;-11
2022/10/23 04:58:24;;;;;;;0.17;0.17;;;21.60;70.70;;;;;;4938321;28;20089;-11
2022/10/23 05:00:50;;;;;;;0.22;0.22;;;21.60;70.40;;;;;;4945822;28;20430;-12
2022/10/23 05:03:16;;;;;;;0.10;0.10;;;21.60;70.50;;;;;;4950873;28;20044;-13
2022/10/23 05:05:42;;;;;;;0.20;0.20;;;21.60;70.50;;;;;;4948306;28;20048;-12
2022/10/23 05:08:07;;;;;;;0.25;0.25;;;21.50;70.30;;;;;;4959312;28;20038;-11
2022/10/23 05:10:33;;;;;;;0.30;0.30;;;21.50;70.60;;;;;;4958186;28;20070;-11
2022/10/23 05:12:58;;;;;;;0.35;0.28;;;21.60;70.50;;;;;;4952986;28;20070;-11
2022/10/23 05:15:24;;;;;;;0.45;0.28;;;21.50;70.40;;;;;;4957738;28;20065;-12
2022/10/23 05:17:51;;;;;;;0.30;0.30;;;21.50;70.60;;;;;;4957444;28;20058;-12
2022/10/23 05:20:19;;;;;;;0.20;0.20;;;21.50;70.50;;;;;;4958691;28;20035;-13
2022/10/23 05:22:45;;;;;;;0.30;0.30;;;21.50;70.50;;;;;;4976578;28;20401;-12
2022/10/23 05:25:11;;;;;;;0.10;0.10;;;21.50;70.50;;;;;;4977017;28;20047;-11
2022/10/23 05:27:37;;;;;;;0.10;0.10;;;21.50;70.70;;;;;;4955469;28;20055;-12
2022/10/23 05:30:03;;;;;;;0.10;0.10;;;21.50;70.60;;;;;;4959274;28;20077;-15
2022/10/23 05:32:29;;;;;;;0.15;0.10;;;21.50;70.50;;;;;;4960286;28;20134;-11
2022/10/23 05:34:55;;;;;;;0.20;0.15;;;21.60;70.40;;;;;;4959245;28;20134;-11
2022/10/23 05:37:20;;;;;;;0.20;0.17;;;21.50;70.50;;;;;;4963284;28;20043;-11
2022/10/23 05:39:46;;;;;;;0.20;0.20;;;21.50;70.50;;;;;;4978021;28;20055;-11
2022/10/23 05:42:11;;;;;;;0.10;0.10;;;21.50;70.70;;;;;;4957083;28;20525;-11
2022/10/23 05:44:37;;;;;;;0.40;0.10;;;21.50;70.70;;;;;;4963757;28;20109;-11
2022/10/23 05:47:03;;;;;;;0.30;0.30;;;21.50;70.40;;;;;;4958077;28;20034;-12
2022/10/23 05:49:28;;;;;;;0.15;0.15;;;21.40;70.50;;;;;;4957809;28;20051;-12
2022/10/23 05:51:54;;;;;;;0.20;0.20;;;21.50;70.50;;;;;;4955607;28;20039;-11
2022/10/23 05:54:19;;;;;;;0.20;0.20;;;21.50;70.40;;;;;;4957578;28;20457;-12
2022/10/23 05:56:45;;;;;;;0.30;0.30;;;21.50;70.50;;;;;;4955322;28;20039;-11
2022/10/23 05:59:10;;;;;;;0.17;0.10;;;21.50;71.10;;;;;;4963681;28;20564;-11
2022/10/23 06:01:36;;;;;;;0.20;0.20;;;21.50;70.60;;;;;;4962480;28;20046;-14
2022/10/23 06:04:02;;;;;;;0.20;0.20;;;21.50;70.60;;;;;;4952283;28;20126;-12
2022/10/23 06:06:28;;;;;;;0.03;0.03;;;21.50;70.30;;;;;;4962135;28;20518;-11
2022/10/23 06:08:53;;;;;;;0.20;0.20;;;21.50;70.40;;;;;;4954384;28;20043;-12
2022/10/23 06:11:19;;;;;;;0.28;0.10;;;21.50;70.40;;;;;;4954989;28;20069;-12
2022/10/23 06:13:45;;;;;;;0.13;0.13;;;21.50;70.60;;;;;;4955636;28;20080;-12
2022/10/23 06:16:18;;;;;;;0.13;0.13;;;21.50;70.50;;;;;;4959019;28;20047;-11
2022/10/23 06:18:44;;;;;;;0.10;0.10;;;21.50;70.40;;;;;;4956743;28;20050;-11
2022/10/23 06:21:10;;;;;;;0.22;0.22;;;21.40;70.60;;;;;;4960535;28;20051;-11
2022/10/23 06:23:37;;;;;;;0.22;0.20;;;21.50;70.70;;;;;;4955968;28;20043;-12
2022/10/23 06:26:02;;;;;;;0.20;0.20;;;21.50;70.60;;;;;;4960375;28;20546;-12
2022/10/23 06:28:28;;;;;;;0.20;0.20;;;21.40;70.60;;;;;;4952233;28;20053;-11
2022/10/23 06:30:53;;;;;;;0.20;0.20;;;21.50;70.50;;;;;;4955259;28;20117;-11
2022/10/23 06:33:19;;;;;;;0.28;0.17;;;21.50;70.50;;;;;;4954802;28;20051;-11
2022/10/23 06:35:45;;;;;;;0.20;0.20;;;21.50;70.50;;;;;;4954639;28;20101;-11
2022/10/23 06:38:10;;;;;;;0.40;0.40;;;21.50;70.40;;;;;;4954470;28;20047;-11
2022/10/23 06:40:36;;;;;;;0.47;0.20;;;21.50;70.30;;;;;;4954227;28;20078;-11
2022/10/23 06:43:07;;;;;;;0.22;0.22;;;21.50;70.30;;;;;;4949872;28;20039;-19
2022/10/23 06:45:33;;;;;;;0.10;0.10;;;21.50;70.50;;;;;;4947305;28;20418;-11
2022/10/23 06:47:59;;;;;;;0.20;0.20;;;21.50;70.40;;;;;;4951090;28;20059;-11
2022/10/23 06:50:24;;;;;;;0.10;0.10;;;21.50;70.50;;;;;;4951546;28;20047;-12
2022/10/23 06:52:50;;;;;;;0.20;0.20;;;21.50;70.50;;;;;;4949644;28;20142;-11
2022/10/23 06:55:16;;;;;;;0.10;0.10;;;21.50;70.20;;;;;;4956488;28;20111;-11
2022/10/23 06:57:42;;;;;;;0.10;0.10;;;21.50;70.30;;;;;;4956915;28;20047;-12
2022/10/23 07:00:08;;;;;;;0.47;0.30;;;21.40;70.60;;;;;;4952759;28;20069;-17
2022/10/23 07:02:34;;;;;;;0.10;0.10;;;21.50;70.70;;;;;;4957710;28;20035;-11
2022/10/23 07:04:59;;;;;;;1.00;0.10;;;21.60;71.00;;;;;;4951205;28;20062;-11
2022/10/23 07:07:25;;;;;;;0.10;0.10;;;21.60;70.90;;;;;;4957534;28;20119;-12
2022/10/23 07:09:50;;;;;;;0.10;0.10;;;21.60;70.60;;;;;;4609192;28;9999798;-11
2022/10/23 07:12:16;;;;;;;0.30;0.20;;;21.70;70.60;;;;;;4955474;28;20528;-11
2022/10/23 07:14:41;;;;;;;0.20;0.20;;;21.70;70.50;;;;;;4954635;28;20042;-11
2022/10/23 07:17:07;;;;;;;0.20;0.20;;;21.70;70.60;;;;;;4953066;28;20039;-11
2022/10/23 07:19:32;;;;;;;0.30;0.20;;;21.60;70.60;;;;;;4949851;28;20499;-18
2022/10/23 07:21:58;;;;;;;0.43;0.30;;;21.70;70.40;;;;;;4949984;28;20038;-11
2022/10/23 07:24:24;;;;;;;0.20;0.20;;;21.60;70.50;;;;;;4951352;28;20046;-11
2022/10/23 07:26:49;;;;;;;0.20;0.20;;;21.60;70.40;;;;;;4950158;28;20058;-11
2022/10/23 07:29:15;;;;;;;0.30;0.25;;;21.60;70.30;;;;;;4955010;28;20777;-12
2022/10/23 07:31:40;;;;;;;0.40;0.30;;;21.60;70.20;;;;;;4950609;28;20066;-12
2022/10/23 07:34:06;;;;;;;0.30;0.30;;;21.60;70.30;;;;;;4950632;28;20118;-13
2022/10/23 07:36:32;;;;;;;0.20;0.20;;;21.60;70.00;;;;;;4959407;28;20064;-12
2022/10/23 07:38:57;;;;;;;0.43;0.32;;;21.60;69.90;;;;;;4952078;28;20106;-18
2022/10/23 07:41:23;;;;;;;0.70;0.40;;;21.60;69.80;;;;;;4951793;28;20522;-16
2022/10/23 07:43:49;;;;;;;0.75;0.40;;;21.60;69.90;;;;;;4986154;28;20105;-13
2022/10/23 07:46:14;;;;;;;0.85;0.52;;;21.60;69.90;;;;;;4957729;28;20301;-13
2022/10/23 07:48:40;;;;;;;0.22;0.22;;;21.60;69.60;;;;;;4973582;28;20047;-14
2022/10/23 07:51:09;;;;;;;0.38;0.38;;;21.70;69.50;;;;;;4957385;28;20031;-12
2022/10/23 07:53:35;;;;;;;0.35;0.25;;;21.70;69.30;;;;;;4960003;28;20090;-23
2022/10/23 07:56:02;;;;;;;0.40;0.30;;;21.70;69.20;;;;;;4960397;28;20031;-13
2022/10/23 07:58:28;;;;;;;3.60;0.38;;;21.70;69.20;;;;;;4958257;28;20149;-13
2022/10/23 08:00:57;;;;;;;0.40;0.40;;;21.70;69.20;;;;;;4960371;28;20399;-12
2022/10/23 08:03:23;;;;;;;0.20;0.20;;;21.70;69.40;;;;;;4955469;28;20039;-13
2022/10/23 08:05:49;;;;;;;0.20;0.20;;;21.70;69.30;;;;;;4956866;28;20038;-11
2022/10/23 08:08:14;;;;;;;0.40;0.40;;;21.70;69.30;;;;;;4955947;28;20082;-12
2022/10/23 08:10:40;;;;;;;0.65;0.30;;;21.60;69.40;;;;;;4955567;28;20506;-11
2022/10/23 08:13:08;;;;;;;0.65;0.20;;;21.60;69.30;;;;;;4950385;28;20138;-12
2022/10/23 08:15:33;;;;;;;0.63;0.28;;;21.60;69.30;;;;;;4990117;28;20137;-13
2022/10/23 08:17:59;;;;;;;1.80;0.35;;;21.60;69.50;;;;;;4956320;28;20481;-12
2022/10/23 08:20:24;;;;;;;0.20;0.20;;;21.60;69.40;;;;;;4955791;28;20086;-12
2022/10/23 08:22:50;;;;;;;0.20;0.20;;;21.50;69.60;;;;;;4957137;28;20610;-12
2022/10/23 08:25:16;;;;;;;0.40;0.40;;;21.60;69.60;;;;;;4954535;28;20041;-12
2022/10/23 08:27:41;;;;;;;0.40;0.30;;;21.60;69.40;;;;;;4954441;28;20026;-12
2022/10/23 08:30:07;;;;;;;0.40;0.40;;;21.60;69.50;;;;;;4957931;28;20049;-12
2022/10/23 08:32:33;;;;;;;1.60;0.30;;;21.50;69.60;;;;;;4956629;28;20071;-12
2022/10/23 08:34:58;;;;;;;0.30;0.20;;;21.50;69.80;;;;;;4956568;28;20066;-12
2022/10/23 08:37:24;;;;;;;0.17;0.17;;;21.50;69.70;;;;;;4960646;28;20042;-12
2022/10/23 08:39:50;;;;;;;0.30;0.30;;;21.50;69.80;;;;;;4958808;28;20039;-12
2022/10/23 08:42:18;;;;;;;1.38;0.20;;;21.60;69.50;;;;;;4953613;28;20036;-13
2022/10/23 08:45:05;;;;;;;1.00;0.30;;;21.50;69.70;;;;;;4972877;28;20055;-12
2022/10/23 08:47:41;;;;;;;0.10;0.10;;;21.40;70.60;;;;;;4954921;28;20031;-12
2022/10/23 08:50:31;;;;;;;0.52;0.20;;;21.40;71.00;;;;;;4984710;28;20047;-11
2022/10/23 08:53:04;;;;;;;0.50;0.40;;;21.40;71.30;;;;;;4949919;28;20050;-12
2022/10/23 08:55:34;;;;;;;0.20;0.20;;;21.40;71.50;;;;;;4988045;28;20187;-12
2022/10/23 08:58:04;;;;;;;0.20;0.20;;;21.40;71.10;;;;;;4970884;28;20038;-12
2022/10/23 09:00:30;;;;;;;0.35;0.28;;;21.40;71.40;;;;;;4975209;28;20189;-12
2022/10/23 09:02:55;;;;;;;0.20;0.17;;;21.40;71.60;;;;;;4974931;28;20509;-23
2022/10/23 09:05:25;;;;;;;0.30;0.30;;;21.40;71.40;;;;;;4956994;28;20050;-12
2022/10/23 09:08:17;;;;;;;0.22;0.13;;;21.40;72.20;;;;;;4971458;28;20510;-12
2022/10/23 09:10:42;;;;;;;0.43;0.28;;;21.40;71.60;;;;;;4953430;28;20032;-12
2022/10/23 09:13:20;;;;;;;0.22;0.22;;;21.40;71.60;;;;;;4953803;28;20054;-12
2022/10/23 09:15:54;;;;;;;0.43;0.35;;;21.40;71.60;;;;;;4976794;28;20207;-13
2022/10/23 09:18:22;;;;;;;0.65;0.40;;;21.40;71.60;;;;;;4968512;28;20047;-12
2022/10/23 09:20:51;;;;;;;0.30;0.30;;;21.40;71.60;;;;;;4956470;28;20035;-12
2022/10/23 09:23:18;;;;;;;1.02;0.32;;;21.50;71.30;;;;;;4951995;28;20050;-12
2022/10/23 09:25:45;;;;;;;0.20;0.20;;;21.60;70.80;;;;;;4948481;28;20032;-12
2022/10/23 09:28:22;;;;;;;1.90;0.40;;;21.70;70.30;;;;;;4951868;28;20051;-12
2022/10/23 09:30:47;;;;;;;0.50;0.20;;;21.80;70.40;;;;;;4952657;28;20047;-12
2022/10/23 09:33:19;;;;;;;0.30;0.30;;;21.80;70.10;;;;;;4950907;28;20043;-12
2022/10/23 09:36:12;;;;;;;0.45;0.45;;;22.00;69.30;;;;;;4951967;28;20040;-16
2022/10/23 09:38:48;;;;;;;0.43;0.28;;;22.10;68.80;;;;;;4950834;28;20383;-16
2022/10/23 09:41:21;;;;;;;1.75;0.50;;;22.30;68.50;;;;;;4952029;28;20035;-12
2022/10/23 09:44:07;;;;;;;0.60;0.40;;;22.20;68.40;;;;;;4949503;28;20395;-12
2022/10/23 09:47:03;;;;;;;0.82;0.20;;;22.30;68.40;;;;;;4974220;28;20039;-14
2022/10/23 09:49:30;;;;;;;0.30;0.30;;;22.30;68.30;;;;;;4953103;28;20070;-13
2022/10/23 09:51:59;;;;;;;0.75;0.28;;;22.40;68.10;;;;;;4951659;28;20038;-13
2022/10/23 09:54:25;;;;;;;0.30;0.30;;;22.40;68.00;;;;;;4952943;28;20050;-12
2022/10/23 09:56:50;;;;;;;0.28;0.17;;;22.50;67.80;;;;;;4947203;28;20031;-12
2022/10/23 09:59:22;;;;;;;0.20;0.20;;;22.60;67.50;;;;;;4950495;28;20157;-13
2022/10/23 10:01:50;;;;;;;0.50;0.20;;;22.50;68.10;;;;;;4951915;28;20036;-13
2022/10/23 10:04:16;;;;;;;0.20;0.20;;;22.40;68.10;;;;;;4965918;28;20403;-13
2022/10/23 10:06:41;;;;;;;0.63;0.30;;;22.40;68.50;;;;;;4952501;28;20042;-13
2022/10/23 10:09:16;;;;;;;0.30;0.30;;;22.40;68.50;;;;;;4959362;28;20422;-14
2022/10/23 10:11:52;;;;;;;0.30;0.30;;;22.50;68.30;;;;;;4958429;28;20529;-12
2022/10/23 10:14:42;;;;;;;0.75;0.40;;;22.50;68.30;;;;;;4961049;28;20045;-12
2022/10/23 10:17:19;;;;;;;2.25;0.30;;;22.50;68.50;;;;;;4960749;28;20034;-12
2022/10/23 10:20:03;;;;;;;0.60;0.57;;;22.50;68.50;;;;;;4957894;28;20046;-12
2022/10/23 10:22:46;;;;;;;0.47;0.40;;;22.50;68.50;;;;;;4959513;28;20725;-11
2022/10/23 10:25:24;;;;;;;0.55;0.40;;;22.50;68.60;;;;;;4952180;28;20035;-11
2022/10/23 10:27:55;;;;;;;0.88;0.30;;;22.50;68.20;;;;;;4973136;28;20030;-12
2022/10/23 10:30:22;;;;;;;0.40;0.30;;;22.50;68.50;;;;;;4940018;28;20074;-11
2022/10/23 10:32:53;;;;;;;0.30;0.30;;;22.50;68.30;;;;;;4954589;28;20606;-11
2022/10/23 10:35:25;;;;;;;0.30;0.30;;;22.50;68.30;;;;;;4957218;28;20545;-13
2022/10/23 10:38:08;;;;;;;0.38;0.30;;;22.50;68.50;;;;;;4955027;28;20589;-11
2022/10/23 10:40:37;;;;;;;0.20;0.20;;;22.50;68.50;;;;;;4971117;28;20050;-12
2022/10/23 10:43:17;;;;;;;0.68;0.30;;;22.40;68.80;;;;;;4974113;28;20036;-11
2022/10/23 10:46:08;;;;;;;1.10;0.40;;;22.40;68.70;;;;;;4952575;28;20044;-12
2022/10/23 10:48:34;;;;;;;0.20;0.20;;;22.50;68.60;;;;;;4955356;28;20035;-11
2022/10/23 10:51:01;;;;;;;0.40;0.40;;;22.50;68.70;;;;;;4958247;28;20051;-12
2022/10/23 10:53:27;;;;;;;0.30;0.30;;;22.50;69.00;;;;;;4928839;28;20097;-11
2022/10/23 10:55:54;;;;;;;0.68;0.30;;;22.50;69.40;;;;;;4931521;28;20138;-12
2022/10/23 10:58:23;;;;;;;0.40;0.40;;;22.50;69.30;;;;;;4926341;28;20054;-12
2022/10/23 11:00:54;;;;;;;0.32;0.32;;;22.50;69.40;;;;;;4603987;28;10000429;-11
2022/10/23 11:03:37;;;;;;;0.73;0.38;;;22.50;70.30;;;;;;4940204;28;20055;-13
2022/10/23 11:06:03;;;;;;;0.82;0.60;;;22.50;69.70;;;;;;4943640;28;20062;-11
2022/10/23 11:08:38;;;;;;;0.60;0.40;;;22.50;69.90;;;;;;4931362;28;20086;-11
2022/10/23 11:11:15;;;;;;;1.48;0.70;;;22.50;70.90;;;;;;4946632;28;20058;-12
2022/10/23 11:13:42;;;;;;;1.90;0.70;;;22.50;69.80;;;;;;4944482;28;20051;-11
2022/10/23 11:16:27;;;;;;;1.05;0.77;;;22.50;70.00;;;;;;4945012;28;20620;-13
2022/10/23 11:18:59;;;;;;;0.80;0.63;;;22.50;70.10;;;;;;4961520;28;20083;-11
2022/10/23 11:21:42;;;;;;;2.08;1.05;;;22.50;70.20;;;;;;4945527;28;20055;-11
2022/10/23 11:24:40;;;;;;;2.75;1.10;;;22.60;70.20;;;;;;4962370;28;20081;-11
2022/10/23 11:27:36;;;;;;;1.17;0.88;;;22.70;70.30;;;;;;4947520;28;20409;-12
2022/10/23 11:30:21;;;;;;;1.20;0.95;;;22.60;70.20;;;;;;4946823;28;20098;-12
2022/10/23 11:33:02;;;;;;;1.15;0.85;;;22.60;70.30;;;;;;4942104;28;20039;-12
2022/10/23 11:35:36;;;;;;;1.13;0.80;;;22.50;70.60;;;;;;4947007;28;20043;-11
2022/10/23 11:38:25;;;;;;;1.85;0.75;;;22.60;70.50;;;;;;4949810;28;20051;-12
2022/10/23 11:40:54;;;;;;;1.42;0.80;;;22.60;70.90;;;;;;4943650;28;20074;-13
2022/10/23 11:43:27;;;;;;;2.20;1.00;;;22.60;70.50;;;;;;4930024;28;20055;-15
2022/10/23 11:45:53;;;;;;;1.38;0.88;;;22.60;70.50;;;;;;4946154;28;20069;-12
2022/10/23 11:48:33;;;;;;;1.48;0.85;;;22.60;70.40;;;;;;4950780;28;20790;-11
2022/10/23 11:50:59;;;;;;;0.98;0.80;;;22.50;70.60;;;;;;4951402;28;20047;-12
2022/10/23 11:53:31;;;;;;;0.95;0.77;;;22.60;70.60;;;;;;4949720;28;20055;-11
2022/10/23 11:55:58;;;;;;;0.77;0.73;;;22.60;70.10;;;;;;4943524;28;20054;-12
2022/10/23 11:58:48;;;;;;;0.70;0.60;;;22.70;70.00;;;;;;4944664;28;20718;-11
2022/10/23 12:01:41;;;;;;;1.38;1.02;;;22.70;70.10;;;;;;4944546;28;20046;-12
2022/10/23 12:04:13;;;;;;;3.08;0.77;;;22.70;69.90;;;;;;4946484;28;20548;-11
2022/10/23 12:06:56;;;;;;;1.40;0.90;;;22.80;69.60;;;;;;4941812;28;20091;-12
2022/10/23 12:09:40;;;;;;;1.13;0.85;;;22.80;69.50;;;;;;4947228;28;20059;-12
2022/10/23 12:12:06;;;;;;;;;;;22.80;69.40;;;;;;4942989;28;20051;-11
2022/10/23 12:14:36;;;;;;;0.68;0.60;;;22.70;69.50;;;;;;4946296;28;19929;-11
2022/10/23 12:17:16;;;;;;;1.13;0.80;;;22.70;69.60;;;;;;4943641;28;20047;-11
2022/10/23 12:19:46;;;;;;;0.82;0.63;;;22.70;69.60;;;;;;4963603;28;20043;-12
2022/10/23 12:22:12;;;;;;;0.70;0.63;;;22.70;70.60;;;;;;4943175;28;20047;-13
2022/10/23 12:25:06;;;;;;;1.20;1.00;;;22.70;69.80;;;;;;4947283;28;20055;-12
2022/10/23 12:27:34;;;;;;;;;;;22.70;69.80;;;;;;4943880;28;20061;-12
2022/10/23 12:30:29;;;;;;;0.85;0.68;;;22.70;69.70;;;;;;4944409;28;19922;-12
2022/10/23 12:33:00;;;;;;;;;;;22.60;69.90;;;;;;4947363;28;20051;-13
2022/10/23 12:36:02;;;;;;;2.42;0.60;;;22.60;69.80;;;;;;4945652;28;19961;-11
2022/10/23 12:38:27;;;;;;;0.98;0.60;;;22.60;70.10;;;;;;4937569;28;20059;-12
2022/10/23 12:41:03;;;;;;;1.45;1.00;;;22.60;69.90;;;;;;4941787;28;20059;-13
2022/10/23 12:43:29;;;;;;;2.28;1.20;;;22.70;69.90;;;;;;4953853;28;20058;-12
2022/10/23 12:45:55;;;;;;;1.40;0.80;;;22.60;70.10;;;;;;4947253;28;20138;-12
2022/10/23 12:48:22;;;;;;;0.77;0.65;;;22.70;70.00;;;;;;4941979;28;20150;-13
2022/10/23 12:50:52;;;;;;;1.98;0.90;;;22.80;69.70;;;;;;4949122;28;20047;-12
2022/10/23 12:53:18;;;;;;;1.75;0.65;;;23.00;69.40;;;;;;4944855;28;20050;-11
2022/10/23 12:56:00;;;;;;;1.90;0.98;;;22.90;69.30;;;;;;4945902;28;20086;-12
2022/10/23 12:58:30;;;;;;;1.77;0.80;;;22.90;69.50;;;;;;4943526;28;20056;-11
2022/10/23 13:00:58;;;;;;;1.08;0.77;;;23.00;69.00;;;;;;4944905;28;20039;-12
2022/10/23 13:03:24;;;;;;;1.85;1.20;;;22.90;69.70;;;;;;4942358;28;20047;-11